Time;durP1;ratioP1;P1;durP2;ratioP2;P2;SDS_P1;SDS_P2;PMS_P1;PMS_P2;Temp;Humidity;BMP_temperature;BMP_pressure;BME280_temperature;BME280_humidity;BME280_pressure;Samples;Min_cycle;Max_cycle;Signal;HPM_P1;HPM_P2
2022/05/01 00:00:40;;;;;;;3.85;2.85;;;10.30;56.80;;;;;;5035313;28;20206;-57
2022/05/01 00:03:07;;;;;;;4.18;3.50;;;10.30;56.80;;;;;;5035861;28;20208;-58
2022/05/01 00:05:36;;;;;;;3.78;3.03;;;10.30;56.80;;;;;;5036233;28;20262;-57
2022/05/01 00:08:04;;;;;;;2.93;2.73;;;10.30;56.70;;;;;;5035561;28;20208;-59
2022/05/01 00:10:31;;;;;;;3.90;2.90;;;10.20;56.60;;;;;;5036067;28;20573;-57
2022/05/01 00:12:58;;;;;;;4.40;2.85;;;10.20;56.60;;;;;;5035604;28;20446;-57
2022/05/01 00:15:25;;;;;;;3.05;2.75;;;10.20;56.60;;;;;;5035608;28;20226;-59
2022/05/01 00:17:52;;;;;;;2.53;2.33;;;10.20;56.70;;;;;;5035341;28;20222;-58
2022/05/01 00:20:19;;;;;;;3.38;3.08;;;10.20;56.70;;;;;;5035674;28;20226;-57
2022/05/01 00:22:47;;;;;;;3.97;2.65;;;10.20;57.40;;;;;;5035596;28;20614;-56
2022/05/01 00:25:14;;;;;;;3.08;2.75;;;10.20;56.80;;;;;;5037164;28;20210;-57
2022/05/01 00:27:41;;;;;;;4.15;3.28;;;10.20;56.90;;;;;;5039669;28;20698;-57
2022/05/01 00:30:09;;;;;;;3.30;3.00;;;10.20;57.10;;;;;;5039909;28;20226;-57
2022/05/01 00:38:03;;;;;;;3.05;2.75;;;10.10;57.60;;;;;;5038555;28;20210;-58
2022/05/01 00:40:30;;;;;;;3.83;3.40;;;10.10;57.80;;;;;;5038608;28;20209;-57
2022/05/01 00:43:02;;;;;;;4.22;3.35;;;10.00;58.00;;;;;;5039342;28;20198;-57
2022/05/01 00:45:29;;;;;;;5.38;3.08;;;10.00;58.30;;;;;;5039451;28;20213;-57
2022/05/01 00:47:56;;;;;;;4.07;2.53;;;10.00;58.60;;;;;;5038560;28;20204;-57
2022/05/01 00:50:23;;;;;;;4.47;3.28;;;10.00;58.90;;;;;;5039298;28;20595;-57
2022/05/01 00:52:51;;;;;;;4.03;3.47;;;10.00;59.30;;;;;;5039403;28;20215;-58
2022/05/01 00:55:20;;;;;;;3.75;3.17;;;10.00;60.20;;;;;;5038923;28;20218;-57
2022/05/01 00:57:48;;;;;;;3.88;3.17;;;9.90;61.00;;;;;;5039160;28;20199;-57
2022/05/01 01:00:18;;;;;;;7.72;3.10;;;9.90;61.30;;;;;;5039124;28;20224;-57
2022/05/01 01:02:46;;;;;;;3.88;3.17;;;9.90;61.70;;;;;;5039150;28;20278;-57
2022/05/01 01:05:13;;;;;;;3.70;2.92;;;9.80;61.90;;;;;;5038970;28;20206;-56
2022/05/01 01:07:40;;;;;;;3.60;3.28;;;9.80;62.00;;;;;;5039505;28;20204;-56
2022/05/01 01:10:08;;;;;;;5.00;2.45;;;9.80;62.20;;;;;;5038625;28;20241;-57
2022/05/01 01:12:54;;;;;;;3.08;2.65;;;9.80;62.20;;;;;;5038967;28;20205;-57
2022/05/01 01:15:22;;;;;;;4.53;2.95;;;9.80;62.30;;;;;;5038343;28;20218;-58
2022/05/01 01:17:52;;;;;;;2.70;2.50;;;9.80;62.30;;;;;;5038645;28;20241;-57
2022/05/01 01:20:22;;;;;;;8.23;3.42;;;9.80;62.50;;;;;;5038780;28;20467;-57
2022/05/01 01:22:53;;;;;;;3.70;3.00;;;9.80;62.60;;;;;;5038437;28;20241;-57
2022/05/01 01:25:22;;;;;;;4.35;3.15;;;9.80;62.60;;;;;;5038203;28;20675;-57
2022/05/01 01:27:50;;;;;;;3.85;3.30;;;9.80;62.70;;;;;;5038650;28;20210;-57
2022/05/01 01:33:02;;;;;;;4.35;2.63;;;9.70;62.70;;;;;;5038760;28;20189;-57
2022/05/01 01:35:30;;;;;;;4.30;3.00;;;9.70;62.80;;;;;;5038139;28;20226;-57
2022/05/01 01:37:59;;;;;;;3.90;2.50;;;9.70;62.80;;;;;;5037538;28;20306;-56
2022/05/01 01:40:29;;;;;;;3.67;3.15;;;9.70;62.90;;;;;;5037508;28;20232;-58
2022/05/01 01:42:58;;;;;;;3.67;2.78;;;9.70;63.00;;;;;;5038318;28;20187;-56
2022/05/01 01:45:28;;;;;;;3.35;3.05;;;9.70;63.20;;;;;;5037496;28;20237;-55
2022/05/01 01:47:55;;;;;;;3.10;2.80;;;9.70;63.40;;;;;;5038127;28;20262;-57
2022/05/01 01:50:23;;;;;;;5.10;3.60;;;9.70;63.70;;;;;;5037822;28;20222;-57
2022/05/01 01:52:50;;;;;;;4.95;3.60;;;9.60;63.90;;;;;;5038192;28;20207;-56
2022/05/01 01:55:19;;;;;;;3.00;2.80;;;9.60;64.30;;;;;;5037666;28;20227;-56
2022/05/01 01:57:47;;;;;;;3.50;3.17;;;9.60;64.70;;;;;;5037874;28;20208;-56
2022/05/01 02:00:15;;;;;;;3.70;3.40;;;9.60;65.10;;;;;;5037688;28;20710;-56
2022/05/01 02:02:42;;;;;;;4.20;2.78;;;9.50;65.50;;;;;;5037971;28;20234;-56
2022/05/01 02:05:09;;;;;;;4.60;3.25;;;9.50;65.90;;;;;;5037291;28;20205;-56
2022/05/01 02:07:36;;;;;;;5.03;3.25;;;9.50;66.20;;;;;;5037911;28;20242;-56
2022/05/01 02:10:04;;;;;;;4.65;3.28;;;9.50;66.50;;;;;;5036759;28;20285;-56
2022/05/01 02:12:34;;;;;;;4.43;3.65;;;9.50;67.00;;;;;;5037371;28;20245;-56
2022/05/01 02:15:01;;;;;;;4.88;3.33;;;9.40;67.30;;;;;;5037545;28;20250;-56
2022/05/01 02:17:28;;;;;;;3.25;2.95;;;9.50;67.80;;;;;;5037187;28;20225;-57
2022/05/01 02:19:55;;;;;;;5.43;3.05;;;9.40;68.10;;;;;;5037176;28;20596;-56
2022/05/01 02:22:22;;;;;;;4.38;2.67;;;9.40;68.70;;;;;;5037013;28;20207;-56
2022/05/01 02:24:50;;;;;;;6.32;3.38;;;9.40;69.30;;;;;;5037123;28;20675;-57
2022/05/01 02:27:17;;;;;;;5.32;3.75;;;9.40;69.70;;;;;;5037651;28;20334;-57
2022/05/01 02:29:46;;;;;;;4.65;3.63;;;9.40;70.20;;;;;;5037484;28;20230;-57
2022/05/01 02:32:13;;;;;;;5.13;3.88;;;9.40;70.60;;;;;;5037479;28;20674;-56
2022/05/01 02:34:41;;;;;;;5.60;3.22;;;9.30;70.90;;;;;;5036850;28;20225;-56
2022/05/01 02:37:08;;;;;;;4.35;3.47;;;9.30;71.40;;;;;;5037215;28;20235;-56
2022/05/01 02:39:35;;;;;;;5.57;4.00;;;9.30;71.70;;;;;;5037695;28;20228;-57
2022/05/01 02:42:02;;;;;;;4.35;3.65;;;9.30;72.10;;;;;;5037035;28;20226;-56
2022/05/01 02:44:30;;;;;;;3.80;3.47;;;9.30;72.50;;;;;;5037226;28;20206;-57
2022/05/01 02:46:58;;;;;;;5.35;3.13;;;9.20;73.00;;;;;;5036141;28;20201;-56
2022/05/01 02:49:26;;;;;;;4.55;4.05;;;9.20;73.50;;;;;;5035477;28;20733;-56
2022/05/01 02:51:53;;;;;;;5.13;3.83;;;9.20;74.00;;;;;;5037346;28;20642;-57
2022/05/01 02:54:22;;;;;;;8.60;3.65;;;9.20;74.40;;;;;;5036407;28;20297;-58
2022/05/01 02:56:50;;;;;;;6.30;4.13;;;9.20;74.80;;;;;;5035918;28;20203;-58
2022/05/01 02:59:17;;;;;;;4.35;3.58;;;9.20;75.20;;;;;;5035499;28;20698;-57
2022/05/01 03:01:45;;;;;;;3.45;3.15;;;9.20;75.50;;;;;;5036296;28;20206;-56
2022/05/01 03:04:13;;;;;;;3.97;3.58;;;9.20;75.90;;;;;;5036644;28;20210;-57
2022/05/01 03:06:40;;;;;;;4.43;3.47;;;9.20;76.40;;;;;;5036426;28;20211;-56
2022/05/01 03:09:09;;;;;;;5.43;3.97;;;9.10;77.00;;;;;;5059817;22;20245;-61
2022/05/01 03:11:36;;;;;;;3.95;3.20;;;9.10;77.50;;;;;;5036807;28;20694;-61
2022/05/01 03:14:04;;;;;;;5.40;4.30;;;9.10;78.30;;;;;;5037162;28;20623;-62
2022/05/01 03:16:31;;;;;;;4.65;4.13;;;9.00;78.70;;;;;;5038052;28;20230;-61
2022/05/01 03:24:28;;;;;;;10.00;4.40;;;9.00;80.40;;;;;;5034509;28;20189;-62
2022/05/01 03:26:55;;;;;;;4.38;3.90;;;8.90;80.90;;;;;;5035445;28;20206;-60
2022/05/01 03:29:23;;;;;;;5.20;4.22;;;8.90;81.40;;;;;;5035214;28;20230;-61
2022/05/01 03:31:52;;;;;;;4.72;4.20;;;8.90;82.00;;;;;;5038522;28;20213;-61
2022/05/01 03:34:19;;;;;;;5.13;4.00;;;8.80;82.50;;;;;;5041284;28;20571;-61
2022/05/01 03:36:48;;;;;;;4.95;4.25;;;8.80;83.30;;;;;;5038137;28;20207;-61
2022/05/01 03:39:16;;;;;;;8.23;4.75;;;8.80;83.90;;;;;;5040436;28;20631;-62
2022/05/01 03:41:43;;;;;;;6.80;4.07;;;8.80;84.50;;;;;;5040161;28;20257;-62
2022/05/01 03:44:10;;;;;;;7.40;4.30;;;8.80;85.00;;;;;;5035697;28;20206;-61
2022/05/01 03:46:38;;;;;;;7.70;4.20;;;8.80;85.50;;;;;;5034248;28;20195;-61
2022/05/01 03:49:05;;;;;;;6.85;4.50;;;8.80;86.30;;;;;;5033184;28;20233;-62
2022/05/01 03:51:33;;;;;;;7.78;4.45;;;8.70;87.00;;;;;;5033198;28;20213;-62
2022/05/01 03:54:02;;;;;;;5.78;4.35;;;8.70;87.70;;;;;;5033362;28;20198;-61
2022/05/01 03:56:30;;;;;;;8.05;3.85;;;8.70;88.40;;;;;;5032923;28;20313;-62
2022/05/01 03:58:57;;;;;;;5.35;4.20;;;8.70;89.00;;;;;;5033499;28;20245;-62
2022/05/01 04:01:25;;;;;;;7.95;4.22;;;8.70;89.90;;;;;;5032784;28;20230;-62
2022/05/01 04:03:52;;;;;;;7.80;4.05;;;8.60;90.20;;;;;;5032799;28;20241;-62
2022/05/01 04:09:43;;;;;;;5.55;5.00;;;8.60;90.90;;;;;;5091915;27;21105;-61
2022/05/01 04:12:11;;;;;;;8.65;5.18;;;8.60;91.30;;;;;;5092435;28;20582;-62
2022/05/01 04:14:38;;;;;;;6.22;3.95;;;8.60;91.40;;;;;;5092805;28;20207;-61
2022/05/01 04:17:06;;;;;;;5.10;4.53;;;8.60;91.80;;;;;;5097666;28;20205;-62
2022/05/01 04:19:33;;;;;;;6.30;3.83;;;8.60;92.00;;;;;;5098819;28;20235;-62
2022/05/01 04:22:01;;;;;;;9.88;4.95;;;8.60;92.50;;;;;;5101126;28;20221;-62
2022/05/01 04:24:28;;;;;;;6.78;4.28;;;8.60;92.80;;;;;;5101210;28;20284;-62
2022/05/01 04:26:56;;;;;;;7.90;4.72;;;8.60;93.00;;;;;;5098336;28;20213;-62
2022/05/01 04:29:39;;;;;;;5.53;4.82;;;8.70;93.30;;;;;;5094515;28;20235;-61
2022/05/01 04:32:08;;;;;;;7.20;4.85;;;8.60;93.50;;;;;;5091845;28;20538;-60
2022/05/01 04:34:36;;;;;;;7.32;4.75;;;8.70;93.90;;;;;;5091322;28;20201;-62
2022/05/01 04:37:03;;;;;;;6.75;4.72;;;8.60;94.40;;;;;;5093618;28;20205;-61
2022/05/01 04:39:30;;;;;;;6.07;4.65;;;8.70;94.70;;;;;;5093849;28;20227;-61
2022/05/01 04:41:58;;;;;;;5.82;5.10;;;8.70;94.90;;;;;;5096888;28;20208;-62
2022/05/01 04:44:25;;;;;;;7.68;4.63;;;8.70;95.00;;;;;;5099952;28;20200;-61
2022/05/01 04:46:52;;;;;;;6.50;5.15;;;8.70;95.40;;;;;;5097163;28;20201;-62
2022/05/01 04:49:19;;;;;;;8.10;4.57;;;8.70;95.50;;;;;;5092482;28;20227;-61
2022/05/01 04:51:47;;;;;;;5.35;4.80;;;8.80;95.80;;;;;;5094974;28;20201;-62
2022/05/01 04:54:14;;;;;;;5.53;5.03;;;8.80;96.10;;;;;;5093700;28;20681;-62
2022/05/01 04:59:28;;;;;;;11.27;5.20;;;8.80;96.60;;;;;;5091521;28;20262;-62
2022/05/01 05:01:55;;;;;;;6.75;5.20;;;8.80;96.90;;;;;;5090181;28;20283;-62
2022/05/01 05:04:22;;;;;;;7.13;5.82;;;8.80;97.00;;;;;;5090157;28;20236;-61
2022/05/01 05:06:52;;;;;;;11.15;5.70;;;8.80;97.10;;;;;;5090067;28;20666;-62
2022/05/01 05:12:06;;;;;;;10.45;5.95;;;8.90;97.70;;;;;;5089530;28;20199;-61
2022/05/01 05:14:34;;;;;;;10.13;5.32;;;8.90;97.80;;;;;;5089716;28;20247;-62
2022/05/01 05:17:05;;;;;;;6.85;5.75;;;8.90;97.90;;;;;;5089286;28;20720;-62
2022/05/01 05:19:32;;;;;;;8.90;5.80;;;8.90;98.20;;;;;;5084705;28;20217;-62
2022/05/01 05:21:59;;;;;;;8.45;5.82;;;8.90;98.30;;;;;;5075852;28;20688;-61
2022/05/01 05:24:26;;;;;;;11.88;6.20;;;9.00;98.60;;;;;;5075817;28;20670;-62
2022/05/01 05:26:53;;;;;;;6.45;5.85;;;8.90;98.60;;;;;;5076362;28;20197;-61
2022/05/01 05:29:20;;;;;;;8.88;5.50;;;8.90;98.80;;;;;;5077891;28;20235;-62
2022/05/01 05:31:49;;;;;;;8.70;6.13;;;9.00;99.10;;;;;;5077499;28;20202;-61
2022/05/01 05:34:16;;;;;;;9.70;5.55;;;9.00;99.20;;;;;;5077253;28;20205;-61
2022/05/01 05:36:43;;;;;;;11.15;5.85;;;9.10;99.30;;;;;;5076519;28;20202;-62
2022/05/01 05:39:10;;;;;;;8.98;5.70;;;9.20;99.20;;;;;;5075512;28;20217;-62
2022/05/01 05:41:37;;;;;;;8.82;6.20;;;9.20;99.10;;;;;;5077188;28;20220;-61
2022/05/01 05:44:05;;;;;;;6.00;5.40;;;9.30;99.20;;;;;;5077472;28;20594;-61
2022/05/01 05:46:32;;;;;;;8.27;6.05;;;9.40;99.10;;;;;;5076737;28;20238;-62
2022/05/01 05:49:01;;;;;;;8.50;5.32;;;9.50;98.80;;;;;;5077386;28;20242;-62
2022/05/01 05:51:28;;;;;;;7.33;5.20;;;9.60;98.60;;;;;;5076165;28;20594;-61
2022/05/01 05:53:56;;;;;;;8.18;5.70;;;9.60;98.50;;;;;;5075868;28;20450;-62
2022/05/01 05:56:24;;;;;;;8.80;5.95;;;9.70;98.60;;;;;;5075558;28;20203;-62
2022/05/01 05:58:52;;;;;;;6.97;6.10;;;9.80;98.60;;;;;;5075447;28;20223;-62
2022/05/01 06:01:19;;;;;;;10.18;6.43;;;9.80;98.30;;;;;;5074877;28;20319;-62
2022/05/01 06:03:46;;;;;;;8.38;6.40;;;9.80;98.00;;;;;;5077025;28;20202;-62
2022/05/01 06:06:15;;;;;;;10.10;6.45;;;9.80;97.90;;;;;;5076756;28;20211;-61
2022/05/01 06:08:43;;;;;;;8.95;5.57;;;9.90;97.90;;;;;;5074566;28;20225;-61
2022/05/01 06:11:10;;;;;;;12.40;6.13;;;9.90;97.90;;;;;;5074881;28;20200;-61
2022/05/01 06:13:37;;;;;;;6.72;6.03;;;9.90;97.70;;;;;;5074847;28;20465;-62
2022/05/01 06:16:04;;;;;;;7.73;5.77;;;10.00;97.20;;;;;;5074395;28;20201;-62
2022/05/01 06:18:31;;;;;;;7.50;5.90;;;10.10;97.00;;;;;;5074539;28;20469;-63
2022/05/01 06:20:59;;;;;;;8.13;5.83;;;10.20;96.70;;;;;;5074877;28;20554;-62
2022/05/01 06:23:28;;;;;;;7.73;6.00;;;10.20;96.40;;;;;;5076213;28;20447;-62
2022/05/01 06:25:55;;;;;;;9.27;6.00;;;10.30;96.30;;;;;;5080869;28;20456;-62
2022/05/01 06:28:22;;;;;;;9.70;6.30;;;10.40;96.20;;;;;;5079360;28;20489;-61
2022/05/01 06:30:51;;;;;;;7.00;5.63;;;10.50;95.90;;;;;;5078533;28;20463;-61
2022/05/01 06:33:21;;;;;;;9.33;6.00;;;10.60;95.30;;;;;;5079845;28;20447;-62
2022/05/01 06:35:50;;;;;;;13.57;7.00;;;10.70;95.20;;;;;;5079138;28;20443;-61
2022/05/01 06:38:17;;;;;;;8.10;5.60;;;10.80;94.70;;;;;;5081218;28;20540;-60
2022/05/01 06:40:47;;;;;;;5.90;5.33;;;10.90;94.70;;;;;;5080441;28;20985;-61
2022/05/01 06:43:15;;;;;;;9.27;5.70;;;10.90;94.10;;;;;;5081522;28;20435;-61
2022/05/01 06:45:45;;;;;;;8.33;4.90;;;11.00;93.80;;;;;;5077507;28;20458;-61
2022/05/01 06:48:12;;;;;;;7.00;6.00;;;11.10;93.70;;;;;;5077976;28;20451;-60
2022/05/01 06:50:39;;;;;;;13.90;5.70;;;11.20;93.10;;;;;;5078129;28;20482;-61
2022/05/01 06:53:07;;;;;;;9.07;6.27;;;11.30;92.80;;;;;;5075533;28;20859;-62
2022/05/01 06:55:34;;;;;;;8.00;5.20;;;11.30;92.30;;;;;;5078146;28;20450;-61
2022/05/01 06:58:03;;;;;;;10.23;6.27;;;11.40;92.00;;;;;;5078371;28;20443;-61
2022/05/01 07:00:30;;;;;;;12.07;6.00;;;11.50;91.60;;;;;;5076861;28;20803;-61
2022/05/01 07:02:58;;;;;;;8.30;6.17;;;11.50;91.20;;;;;;5074329;28;20453;-61
2022/05/01 07:05:25;;;;;;;9.23;5.60;;;11.60;91.10;;;;;;5073917;28;20443;-61
2022/05/01 07:07:54;;;;;;;7.20;5.87;;;11.70;90.80;;;;;;5074147;28;20457;-62
2022/05/01 07:10:22;;;;;;;11.40;5.40;;;11.70;90.20;;;;;;5074659;28;20491;-62
2022/05/01 07:12:50;;;;;;;10.23;5.87;;;11.80;90.00;;;;;;5075043;28;20446;-62
2022/05/01 07:15:18;;;;;;;8.97;5.50;;;11.90;89.20;;;;;;5074297;28;20471;-61
2022/05/01 07:17:45;;;;;;;6.73;5.07;;;12.00;88.30;;;;;;5074168;28;20518;-62
2022/05/01 07:20:13;;;;;;;6.87;5.03;;;12.00;87.60;;;;;;5073992;28;20464;-63
2022/05/01 07:22:40;;;;;;;7.63;5.40;;;12.20;86.80;;;;;;5073889;28;20976;-62
2022/05/01 07:25:08;;;;;;;8.37;4.97;;;12.30;86.00;;;;;;5073731;28;20479;-62
2022/05/01 07:27:35;;;;;;;9.20;5.47;;;12.40;84.80;;;;;;5073453;28;20451;-62
2022/05/01 07:30:03;;;;;;;6.43;5.13;;;12.40;84.20;;;;;;5073629;28;20491;-61
2022/05/01 07:32:32;;;;;;;6.50;4.90;;;12.30;83.60;;;;;;5074430;28;20959;-63
2022/05/01 07:34:59;;;;;;;8.47;5.00;;;12.30;83.10;;;;;;5073906;28;20620;-62
2022/05/01 07:37:26;;;;;;;13.97;5.07;;;12.20;82.50;;;;;;5073849;28;20443;-61
2022/05/01 07:39:54;;;;;;;9.70;5.67;;;12.30;82.00;;;;;;5073158;28;20467;-63
2022/05/01 07:42:23;;;;;;;6.60;5.97;;;12.30;81.10;;;;;;5073222;28;20451;-61
2022/05/01 07:44:51;;;;;;;11.97;5.73;;;12.30;80.60;;;;;;5072943;28;20450;-62
2022/05/01 07:47:18;;;;;;;10.90;4.73;;;12.50;79.90;;;;;;5073361;28;20564;-62
2022/05/01 07:49:46;;;;;;;5.33;3.97;;;12.60;78.70;;;;;;5073305;28;20488;-61
2022/05/01 07:52:16;;;;;;;5.93;4.47;;;12.70;77.80;;;;;;5073575;28;20461;-62
2022/05/01 07:54:43;;;;;;;5.73;4.77;;;12.80;76.40;;;;;;5073819;28;20906;-64
2022/05/01 07:57:10;;;;;;;11.77;4.30;;;12.90;74.20;;;;;;5073106;28;20457;-64
2022/05/01 07:59:37;;;;;;;5.97;4.10;;;13.00;72.20;;;;;;5073170;28;20472;-62
2022/05/01 08:02:04;;;;;;;13.00;4.63;;;13.00;71.20;;;;;;5073803;28;20450;-63
2022/05/01 08:04:32;;;;;;;8.77;4.30;;;13.10;70.90;;;;;;5072966;28;20454;-62
2022/05/01 08:07:02;;;;;;;5.20;4.70;;;13.10;70.30;;;;;;5072728;28;20996;-61
2022/05/01 08:09:30;;;;;;;5.83;4.73;;;13.10;69.90;;;;;;5072815;28;20593;-63
2022/05/01 08:11:57;;;;;;;7.03;4.30;;;13.20;69.70;;;;;;5073437;28;20454;-63
2022/05/01 08:14:25;;;;;;;5.87;4.37;;;13.30;69.40;;;;;;5073669;28;20485;-62
2022/05/01 08:16:52;;;;;;;6.80;4.50;;;13.50;68.60;;;;;;5072968;28;20454;-61
2022/05/01 08:22:06;;;;;;;7.13;3.70;;;13.60;67.00;;;;;;5073460;28;20729;-62
2022/05/01 08:24:33;;;;;;;5.60;3.70;;;13.60;66.70;;;;;;5073021;28;20473;-62
2022/05/01 08:27:05;;;;;;;4.70;3.80;;;13.60;66.10;;;;;;5073515;28;20447;-61
2022/05/01 08:29:33;;;;;;;5.07;3.50;;;13.50;65.80;;;;;;5073609;28;20484;-62
2022/05/01 08:32:01;;;;;;;3.93;3.63;;;13.50;65.40;;;;;;5073016;28;20962;-63
2022/05/01 08:34:28;;;;;;;5.20;3.77;;;13.50;64.80;;;;;;5073118;28;20451;-64
2022/05/01 08:36:55;;;;;;;3.47;3.17;;;13.50;64.30;;;;;;5073028;28;20451;-62
2022/05/01 08:39:24;;;;;;;5.00;3.40;;;13.60;63.00;;;;;;5072675;28;20478;-62
2022/05/01 08:41:51;;;;;;;4.50;3.40;;;13.70;62.00;;;;;;5072819;28;20446;-62
2022/05/01 08:44:30;;;;;;;5.00;3.67;;;13.60;61.10;;;;;;5072665;28;20457;-62
2022/05/01 08:47:03;;;;;;;4.50;3.80;;;13.60;61.10;;;;;;5072839;28;20419;-63
2022/05/01 08:49:33;;;;;;;5.50;3.47;;;13.70;60.80;;;;;;5072486;28;20493;-61
2022/05/01 08:52:02;;;;;;;5.30;3.47;;;13.80;60.10;;;;;;5072565;28;20486;-63
2022/05/01 08:54:33;;;;;;;4.37;3.40;;;14.00;60.20;;;;;;5073140;28;20446;-62
2022/05/01 08:57:01;;;;;;;5.33;3.47;;;14.40;59.50;;;;;;5076028;28;20432;-61
2022/05/01 08:59:31;;;;;;;4.97;3.70;;;14.60;58.30;;;;;;5076146;28;20495;-62
2022/05/01 09:01:58;;;;;;;3.90;3.50;;;14.80;57.40;;;;;;5076429;28;20457;-61
2022/05/01 09:04:26;;;;;;;7.20;3.93;;;14.90;56.70;;;;;;5077408;28;20450;-62
2022/05/01 09:06:54;;;;;;;3.90;3.37;;;14.90;56.10;;;;;;5077746;28;20444;-62
2022/05/01 09:09:22;;;;;;;4.00;3.07;;;14.90;55.70;;;;;;5093415;22;20706;-57
2022/05/01 09:14:37;;;;;;;5.00;2.90;;;14.90;54.90;;;;;;5036965;28;20467;-59
2022/05/01 09:17:13;;;;;;;3.80;3.50;;;15.00;54.20;;;;;;5039413;28;20453;-58
2022/05/01 09:19:40;;;;;;;4.03;3.23;;;15.10;53.40;;;;;;5036321;28;20474;-57
2022/05/01 09:22:08;;;;;;;3.23;2.53;;;15.20;52.60;;;;;;5037139;28;20462;-57
2022/05/01 09:24:35;;;;;;;3.23;2.60;;;15.30;51.80;;;;;;5040579;28;20445;-58
2022/05/01 09:27:03;;;;;;;2.97;2.67;;;15.30;50.70;;;;;;5040501;28;20443;-57
2022/05/01 09:29:35;;;;;;;3.37;2.30;;;15.40;50.10;;;;;;5040112;28;21018;-59
2022/05/01 09:32:04;;;;;;;2.27;2.00;;;15.50;49.10;;;;;;5040374;28;20507;-57
2022/05/01 09:34:35;;;;;;;3.17;2.40;;;15.60;47.90;;;;;;5040849;28;20476;-58
2022/05/01 09:37:04;;;;;;;3.33;2.07;;;15.70;47.00;;;;;;5040692;28;20502;-58
2022/05/01 09:39:32;;;;;;;3.47;2.50;;;16.00;46.40;;;;;;5040016;28;20503;-58
2022/05/01 09:42:17;;;;;;;4.57;2.27;;;16.40;45.70;;;;;;5040342;28;20445;-56
2022/05/01 09:44:44;;;;;;;4.83;3.27;;;16.60;44.90;;;;;;5039677;28;20547;-56
2022/05/01 09:47:12;;;;;;;2.00;1.73;;;16.80;44.50;;;;;;5040000;28;20453;-57
2022/05/01 09:49:50;;;;;;;2.70;2.13;;;17.00;43.70;;;;;;5040250;28;20511;-55
2022/05/01 09:52:17;;;;;;;3.77;2.13;;;17.10;42.70;;;;;;5040591;28;20452;-57
2022/05/01 09:55:02;;;;;;;3.80;2.37;;;17.10;41.80;;;;;;5040997;28;20448;-55
2022/05/01 09:57:31;;;;;;;5.50;2.07;;;16.90;41.20;;;;;;5041035;28;20514;-56
2022/05/01 09:59:59;;;;;;;5.63;2.50;;;16.80;40.30;;;;;;5040183;28;20981;-57
2022/05/01 10:02:29;;;;;;;1.63;1.53;;;16.80;40.10;;;;;;5040437;28;20519;-56
2022/05/01 10:05:03;;;;;;;18.63;16.60;;;16.80;39.60;;;;;;5040620;28;20494;-57
2022/05/01 10:07:36;;;;;;;5.23;3.03;;;16.80;39.30;;;;;;5040742;28;20464;-57
2022/05/01 10:10:07;;;;;;;5.00;2.90;;;17.00;38.90;;;;;;5038724;28;20558;-58
2022/05/01 10:12:42;;;;;;;5.60;2.30;;;17.20;38.20;;;;;;5038738;28;20480;-58
2022/05/01 10:15:10;;;;;;;2.40;2.20;;;17.30;37.50;;;;;;5039010;28;20464;-58
2022/05/01 10:17:39;;;;;;;2.70;2.37;;;17.40;37.50;;;;;;5038400;28;20452;-59
2022/05/01 10:20:07;;;;;;;2.30;2.00;;;17.40;37.60;;;;;;5039052;28;20583;-58
2022/05/01 10:22:36;;;;;;;2.77;2.57;;;17.40;37.20;;;;;;5039142;28;20448;-58
2022/05/01 10:25:04;;;;;;;2.70;2.47;;;17.20;36.80;;;;;;5038963;28;20449;-57
2022/05/01 10:27:41;;;;;;;2.53;2.30;;;17.20;36.80;;;;;;5039552;28;20479;-58
2022/05/01 10:33:37;;;;;;;3.50;2.50;;;17.20;37.30;;;;;;5039029;28;20412;-58
2022/05/01 10:36:24;;;;;;;3.10;2.47;;;17.30;37.20;;;;;;5009595;28;20817;-59
2022/05/01 10:39:07;;;;;;;3.00;2.27;;;17.40;37.10;;;;;;5038389;28;20433;-59
2022/05/01 10:41:34;;;;;;;2.50;2.30;;;17.70;36.90;;;;;;5038521;28;20782;-57
2022/05/01 10:44:03;;;;;;;2.50;2.30;;;17.80;36.50;;;;;;5039131;28;20444;-58
2022/05/01 10:46:31;;;;;;;3.70;2.40;;;17.90;36.50;;;;;;5037979;28;20457;-56
2022/05/01 10:49:01;;;;;;;3.47;2.93;;;18.00;36.30;;;;;;5038147;28;20437;-58
2022/05/01 10:51:52;;;;;;;3.63;2.80;;;18.00;36.60;;;;;;5038808;28;20483;-57
2022/05/01 10:54:41;;;;;;;6.30;3.27;;;18.10;36.80;;;;;;5038365;28;20463;-58
2022/05/01 10:57:14;;;;;;;3.33;2.50;;;18.10;36.50;;;;;;5038207;28;20440;-58
2022/05/01 10:59:46;;;;;;;4.43;2.60;;;18.20;36.40;;;;;;5038104;28;20465;-58
2022/05/01 11:02:39;;;;;;;4.13;3.00;;;18.30;36.20;;;;;;5038425;28;20901;-57
2022/05/01 11:05:11;;;;;;;7.83;3.37;;;18.20;36.10;;;;;;5037670;28;20464;-57
2022/05/01 11:07:40;;;;;;;4.20;2.57;;;18.10;36.10;;;;;;5038569;28;20432;-58
2022/05/01 11:10:10;;;;;;;2.83;2.60;;;18.10;36.10;;;;;;5037578;28;20489;-58
2022/05/01 11:12:38;;;;;;;3.90;3.50;;;18.00;35.90;;;;;;5037965;28;20552;-56
2022/05/01 11:15:08;;;;;;;3.03;2.40;;;18.10;36.10;;;;;;5036873;28;20925;-56
2022/05/01 11:17:54;;;;;;;4.33;3.00;;;18.30;36.40;;;;;;5036321;28;20452;-56
2022/05/01 11:20:34;;;;;;;4.97;3.17;;;18.30;36.50;;;;;;5036883;28;20495;-56
2022/05/01 11:23:31;;;;;;;5.30;3.70;;;18.50;36.60;;;;;;5037275;28;20453;-57
2022/05/01 11:26:15;;;;;;;3.70;3.20;;;18.40;36.50;;;;;;5036513;28;20473;-57
2022/05/01 11:28:53;;;;;;;3.63;3.13;;;18.70;36.30;;;;;;5037158;28;20463;-55
2022/05/01 11:31:49;;;;;;;4.73;3.63;;;18.90;36.10;;;;;;5036409;28;20500;-57
2022/05/01 11:34:54;;;;;;;3.30;3.00;;;19.00;36.30;;;;;;5030452;28;20464;-58
2022/05/01 11:37:23;;;;;;;4.47;3.10;;;19.10;36.80;;;;;;5036392;28;20451;-58
2022/05/01 11:40:24;;;;;;;6.07;3.33;;;19.10;36.90;;;;;;5036095;28;20503;-58
2022/05/01 11:42:52;;;;;;;5.77;3.37;;;18.80;37.00;;;;;;5036111;28;20420;-58
2022/05/01 11:45:20;;;;;;;3.90;2.83;;;18.70;37.10;;;;;;5036527;28;20458;-57
2022/05/01 11:47:52;;;;;;;4.50;2.90;;;18.90;37.30;;;;;;5036666;28;20448;-57
2022/05/01 11:50:24;;;;;;;4.93;2.67;;;19.00;37.00;;;;;;5036794;28;20484;-57
2022/05/01 11:52:54;;;;;;;4.80;2.90;;;19.00;37.20;;;;;;5035274;28;20433;-57
2022/05/01 12:02:24;;;;;;;4.83;2.87;;;19.20;37.30;;;;;;5036834;28;20437;-57
2022/05/01 12:03:41;;;;;;;6.60;3.60;;;21.10;34.80;;;;;;5035951;28;20432;-57
2022/05/01 12:06:08;;;;;;;4.20;2.90;;;21.70;34.10;;;;;;5036095;28;20448;-57
2022/05/01 12:08:49;;;;;;;3.50;3.10;;;22.20;33.60;;;;;;5035784;28;20449;-57
2022/05/01 12:11:28;;;;;;;3.67;3.00;;;22.30;33.00;;;;;;5036171;28;20855;-57
2022/05/01 12:14:07;;;;;;;4.10;3.23;;;22.00;33.20;;;;;;5036282;28;20441;-57
2022/05/01 12:16:35;;;;;;;5.53;3.50;;;21.40;33.50;;;;;;5035024;28;20436;-57
2022/05/01 12:19:04;;;;;;;5.53;3.50;;;20.80;33.90;;;;;;5035592;28;20441;-57
2022/05/01 12:21:32;;;;;;;4.10;3.70;;;20.10;34.70;;;;;;5035068;28;20441;-57
2022/05/01 12:24:04;;;;;;;4.47;3.50;;;19.60;35.30;;;;;;5034939;28;20501;-57
2022/05/01 12:26:34;;;;;;;4.03;3.57;;;19.40;35.50;;;;;;5034755;28;20448;-57
2022/05/01 12:29:01;;;;;;;4.17;3.77;;;19.20;35.70;;;;;;5035492;28;20447;-57
2022/05/01 12:31:30;;;;;;;5.40;3.70;;;19.10;35.90;;;;;;5039533;28;20483;-57
2022/05/01 12:33:58;;;;;;;3.60;3.30;;;18.90;36.00;;;;;;5040646;28;20441;-57
2022/05/01 12:36:27;;;;;;;5.83;4.07;;;18.90;36.20;;;;;;5039686;28;20449;-58
2022/05/01 12:39:05;;;;;;;3.90;3.60;;;18.70;36.00;;;;;;5039976;28;20528;-57
2022/05/01 12:44:16;;;;;;;5.90;3.80;;;18.60;36.10;;;;;;5040205;28;20408;-57
2022/05/01 12:46:53;;;;;;;5.63;3.40;;;18.50;36.30;;;;;;5041189;28;20447;-58
2022/05/01 12:49:27;;;;;;;6.40;3.97;;;18.50;36.30;;;;;;5041656;28;20476;-59
2022/05/01 12:51:56;;;;;;;3.53;3.23;;;18.50;36.20;;;;;;5042006;28;20480;-57
2022/05/01 12:54:23;;;;;;;6.40;3.70;;;18.50;36.00;;;;;;5041883;28;20448;-56
2022/05/01 12:56:50;;;;;;;4.00;3.70;;;18.60;35.90;;;;;;5041103;28;20449;-56
2022/05/01 12:59:25;;;;;;;3.87;3.57;;;18.80;35.60;;;;;;5042599;28;20469;-56
2022/05/01 13:01:52;;;;;;;3.70;3.20;;;18.90;35.30;;;;;;5042749;28;20440;-56
2022/05/01 13:04:24;;;;;;;4.80;3.10;;;18.90;35.20;;;;;;5043104;28;20482;-58
2022/05/01 13:06:51;;;;;;;3.50;3.10;;;18.70;35.10;;;;;;5041584;28;20506;-56
2022/05/01 13:09:20;;;;;;;3.73;3.40;;;18.80;35.40;;;;;;5041376;28;20477;-56
2022/05/01 13:12:01;;;;;;;8.23;6.60;;;19.00;35.20;;;;;;5041798;28;21004;-56
2022/05/01 13:14:33;;;;;;;4.63;3.47;;;19.20;35.20;;;;;;5041012;28;20445;-56
2022/05/01 13:17:10;;;;;;;6.43;3.50;;;19.60;35.00;;;;;;5040709;28;20429;-57
2022/05/01 13:19:38;;;;;;;16.53;11.67;;;19.50;34.40;;;;;;5040065;28;20468;-56
2022/05/01 13:22:07;;;;;;;10.60;9.43;;;19.30;34.90;;;;;;5040188;28;20482;-56
2022/05/01 13:24:37;;;;;;;5.47;3.63;;;19.30;35.20;;;;;;5039555;28;20499;-56
2022/05/01 13:27:06;;;;;;;6.17;3.50;;;19.50;35.00;;;;;;5040017;28;20456;-58
2022/05/01 13:29:35;;;;;;;3.63;3.33;;;19.50;34.80;;;;;;5040162;28;20815;-59
2022/05/01 13:32:05;;;;;;;4.47;4.07;;;19.50;34.80;;;;;;5039556;28;20484;-57
2022/05/01 13:34:32;;;;;;;4.00;3.70;;;19.50;34.80;;;;;;5039521;28;20507;-57
2022/05/01 13:37:00;;;;;;;4.80;3.63;;;19.30;35.00;;;;;;5040008;28;20472;-57
2022/05/01 13:44:44;;;;;;;4.63;3.13;;;19.30;35.30;;;;;;5038998;28;20526;-58
2022/05/01 13:45:01;;;;;;;5.17;3.60;;;19.50;35.10;;;;;;5038881;28;20416;-57